createdAt,value
2023-11-12T00:00:51.735Z,100148.38
2023-11-12T00:03:19.894Z,100146.50
2023-11-12T00:05:47.964Z,100141.06
2023-11-12T00:08:16.008Z,100138.34
2023-11-12T00:10:44.050Z,100133.72
2023-11-12T00:13:12.136Z,100140.00
2023-11-12T00:15:42.452Z,100136.81
2023-11-12T00:18:10.544Z,100132.19
2023-11-12T00:20:38.616Z,100125.69
2023-11-12T00:23:10.007Z,100128.41
2023-11-12T00:25:38.033Z,100137.16
2023-11-12T00:28:06.619Z,100124.38
2023-11-12T00:30:34.616Z,100121.66
2023-11-12T00:33:04.128Z,100130.41
2023-11-12T00:35:32.127Z,100133.13
2023-11-12T00:38:00.566Z,100130.41
2023-11-12T00:40:28.780Z,100128.28
2023-11-12T00:42:58.242Z,100128.03
2023-11-12T00:45:26.247Z,100127.22
2023-11-12T00:47:54.209Z,100120.72
2023-11-12T00:50:23.591Z,100123.19
2023-11-12T00:52:51.648Z,100118.56
2023-11-12T00:55:19.636Z,100124.84
2023-11-12T00:57:47.616Z,100126.50
2023-11-12T01:00:16.506Z,100124.59
2023-11-12T01:02:44.761Z,100125.44
2023-11-12T01:05:12.940Z,100122.13
2023-11-12T01:07:42.540Z,100099.31
2023-11-12T01:10:11.162Z,100115.63
2023-11-12T01:12:39.228Z,100114.78
2023-11-12T01:15:10.030Z,100114.78
2023-11-12T01:17:38.386Z,100107.69
2023-11-12T01:20:11.436Z,100107.69
2023-11-12T01:22:39.478Z,100104.41
2023-11-12T01:25:09.787Z,100108.75
2023-11-12T01:27:37.871Z,100105.69
2023-11-12T01:30:09.138Z,100117.72
2023-11-12T01:32:37.150Z,100110.63
2023-11-12T01:35:06.339Z,100112.28
2023-11-12T01:37:34.274Z,100113.34
2023-11-12T01:40:02.384Z,100114.19
2023-11-12T01:42:32.597Z,100113.34
2023-11-12T01:45:01.138Z,100116.91
2023-11-12T01:47:29.175Z,100107.13
2023-11-12T01:49:57.352Z,100094.31
2023-11-12T01:52:25.304Z,100099.75
2023-11-12T01:54:53.330Z,100107.13
2023-11-12T01:57:21.384Z,100110.63
2023-11-12T01:59:50.759Z,100110.63
2023-11-12T02:02:19.005Z,100107.13
2023-11-12T02:04:47.090Z,100102.47
2023-11-12T02:07:15.068Z,100096.25
2023-11-12T02:09:43.534Z,100094.56
2023-11-12T02:12:14.700Z,100088.31
2023-11-12T02:14:42.743Z,100088.31
2023-11-12T02:17:12.331Z,100092.91
2023-11-12T02:19:40.418Z,100100.84
2023-11-12T02:22:08.680Z,100095.41
2023-11-12T02:24:39.389Z,100091.84
2023-11-12T02:27:07.733Z,100092.69
2023-11-12T02:29:35.702Z,100088.53
2023-11-12T02:32:04.666Z,100091.59
2023-11-12T02:34:32.708Z,100086.41
2023-11-12T02:37:01.454Z,100095.41
2023-11-12T02:39:29.504Z,100097.03
2023-11-12T02:42:00.262Z,100097.63
2023-11-12T02:44:28.256Z,100111.47
2023-11-12T02:46:56.283Z,100102.47
2023-11-12T02:49:33.311Z,100101.31
2023-11-12T02:52:01.318Z,100093.75
2023-11-12T02:54:29.273Z,100093.75
2023-11-12T02:56:58.590Z,100090.19
2023-11-12T02:59:26.547Z,100096.25
2023-11-12T03:01:55.114Z,100089.97
2023-11-12T03:04:23.107Z,100093.75
2023-11-12T03:06:51.115Z,100091.84
2023-11-12T03:09:19.193Z,100100.00
2023-11-12T03:11:47.306Z,100101.06
2023-11-12T03:14:18.973Z,100101.31
2023-11-12T03:16:47.086Z,100102.97
2023-11-12T03:19:16.043Z,100090.44
2023-11-12T03:21:44.046Z,100088.75
2023-11-12T03:24:12.066Z,100086.03
2023-11-12T03:26:40.037Z,100088.75
2023-11-12T03:29:07.980Z,100082.53
2023-11-12T03:31:37.341Z,100081.69
2023-11-12T03:34:05.463Z,100078.16
2023-11-12T03:36:33.392Z,100074.38
2023-11-12T03:39:01.375Z,100071.38
2023-11-12T03:41:29.426Z,100076.81
2023-11-12T03:43:57.350Z,100065.59
2023-11-12T03:46:25.348Z,100071.38
2023-11-12T03:48:54.702Z,100071.38
2023-11-12T03:51:22.735Z,100070.56
2023-11-12T03:53:50.913Z,100067.84
2023-11-12T03:56:19.167Z,100076.81
2023-11-12T03:58:47.310Z,100064.78
2023-11-12T04:01:15.356Z,100071.38
2023-11-12T04:03:43.478Z,100068.66
2023-11-12T04:06:13.224Z,100070.31
2023-11-12T04:08:41.186Z,100064.88
2023-11-12T04:11:09.224Z,100061.34
2023-11-12T04:13:37.196Z,100059.69
2023-11-12T04:16:06.857Z,100064.56
2023-11-12T04:18:36.083Z,100060.41
2023-11-12T04:21:05.138Z,100059.56
2023-11-12T04:23:34.483Z,100054.13
2023-11-12T04:26:02.885Z,100054.13
2023-11-12T04:28:30.864Z,100047.06
2023-11-12T04:30:58.942Z,100054.97
2023-11-12T04:33:26.951Z,100053.06
2023-11-12T04:35:54.953Z,100049.53
2023-11-12T04:38:22.933Z,100052.25
2023-11-12T04:40:52.257Z,100056.28
2023-11-12T04:43:20.825Z,100067.50
2023-11-12T04:45:49.062Z,100071.03
2023-11-12T04:48:17.177Z,100059.34
2023-11-12T04:50:45.131Z,100067.50
2023-11-12T04:53:13.098Z,100063.72
2023-11-12T04:55:41.020Z,100066.44
2023-11-12T04:58:10.375Z,100070.81
2023-11-12T05:00:40.629Z,100071.66
2023-11-12T05:03:08.835Z,100066.44
2023-11-12T05:05:37.466Z,100072.44
2023-11-12T05:08:05.903Z,100068.94
2023-11-12T05:10:44.705Z,100065.13
2023-11-12T05:13:15.347Z,100070.56
2023-11-12T05:15:43.419Z,100071.38
2023-11-12T05:18:11.878Z,100079.53
2023-11-12T05:20:40.048Z,100076.00
2023-11-12T05:23:08.607Z,100080.38
2023-11-12T05:25:36.619Z,100074.94
2023-11-12T05:28:07.121Z,100077.09
2023-11-12T05:30:36.953Z,100075.75
2023-11-12T05:33:05.241Z,100075.75
2023-11-12T05:35:33.252Z,100079.31
2023-11-12T05:38:01.199Z,100072.72
2023-11-12T05:40:30.568Z,100079.31
2023-11-12T05:42:59.065Z,100086.66
2023-11-12T05:45:27.188Z,100084.75
2023-11-12T05:47:56.637Z,100093.75
2023-11-12T05:50:25.392Z,100101.06
2023-11-12T05:52:53.991Z,100093.75
2023-11-12T05:55:21.993Z,100089.38
2023-11-12T05:57:50.038Z,100100.25
2023-11-12T06:00:18.741Z,100092.91
2023-11-12T06:02:46.863Z,100092.91
2023-11-12T06:05:16.370Z,100083.09
2023-11-12T06:07:44.295Z,100094.81
2023-11-12T06:10:14.007Z,100090.44
2023-11-12T06:12:42.044Z,100093.97
2023-11-12T06:15:11.016Z,100097.75
2023-11-12T06:17:39.131Z,100106.75
2023-11-12T06:20:09.074Z,100106.75
2023-11-12T06:22:38.413Z,100112.19
2023-11-12T06:25:12.727Z,100118.47
2023-11-12T06:27:40.850Z,100114.91
2023-11-12T06:30:11.126Z,100117.63
2023-11-12T06:32:39.557Z,100115.75
2023-11-12T06:35:08.591Z,100111.13
2023-11-12T06:37:38.541Z,100107.56
2023-11-12T06:40:07.955Z,100116.56
2023-11-12T06:42:35.931Z,100115.50
2023-11-12T06:45:03.913Z,100120.94
2023-11-12T06:47:31.969Z,100117.41
2023-11-12T06:49:59.901Z,100136.44
2023-11-12T06:52:27.900Z,100121.19
2023-11-12T06:54:57.228Z,100127.44
2023-11-12T06:57:25.469Z,100133.72
2023-11-12T06:59:53.449Z,100134.78
2023-11-12T07:02:21.982Z,100133.38
2023-11-12T07:04:50.209Z,100139.16
2023-11-12T07:07:18.478Z,100143.78
2023-11-12T07:09:47.201Z,100145.44
2023-11-12T07:12:17.038Z,100147.31
2023-11-12T07:14:45.046Z,100152.75
2023-11-12T07:17:13.942Z,100148.16
2023-11-12T07:19:42.912Z,100141.06
2023-11-12T07:22:11.283Z,100148.16
2023-11-12T07:24:39.320Z,100145.44
2023-11-12T07:27:08.049Z,100151.94
2023-11-12T07:29:37.665Z,100151.94
2023-11-12T07:32:06.268Z,100161.75
2023-11-12T07:34:34.250Z,100161.75
2023-11-12T07:37:02.494Z,100160.09
2023-11-12T07:39:30.958Z,100164.47
2023-11-12T07:41:58.898Z,100166.59
2023-11-12T07:44:26.871Z,100171.81
2023-11-12T07:46:56.338Z,100169.09
2023-11-12T07:49:24.866Z,100172.88
2023-11-12T07:51:53.146Z,100170.16
2023-11-12T07:54:21.258Z,100170.16
2023-11-12T07:56:49.277Z,100172.03
2023-11-12T07:59:17.237Z,100173.34
2023-11-12T08:01:45.243Z,100174.75
2023-11-12T08:04:14.694Z,100181.03
2023-11-12T08:06:42.620Z,100179.13
2023-11-12T08:09:10.590Z,100180.19
2023-11-12T08:11:41.310Z,100185.41
2023-11-12T08:14:10.798Z,100188.13
2023-11-12T08:16:39.444Z,100188.97
2023-11-12T08:19:08.153Z,100190.00
2023-11-12T08:21:37.562Z,100191.69
2023-11-12T08:24:06.536Z,100189.19
2023-11-12T08:26:39.798Z,100195.47
2023-11-12T08:29:08.800Z,100192.50
2023-11-12T08:31:37.369Z,100200.66
2023-11-12T08:34:05.958Z,100196.06
2023-11-12T08:36:34.007Z,100198.78
2023-11-12T08:39:05.261Z,100199.59
2023-11-12T08:41:34.190Z,100208.56
2023-11-12T08:44:02.142Z,100210.50
2023-11-12T08:46:30.207Z,100203.00
2023-11-12T08:48:58.238Z,100211.19
2023-11-12T08:51:26.216Z,100210.72
2023-11-12T08:53:54.280Z,100213.22
2023-11-12T08:56:23.795Z,100211.56
2023-11-12T08:58:51.775Z,100209.88
2023-11-12T09:01:19.865Z,100209.06
2023-11-12T09:03:47.949Z,100209.06
2023-11-12T09:06:16.321Z,100214.50
2023-11-12T09:08:44.447Z,100220.16
2023-11-12T09:11:15.227Z,100212.84
2023-11-12T09:13:46.311Z,100217.22
2023-11-12T09:16:15.049Z,100217.72
2023-11-12T09:18:43.107Z,100212.84
2023-11-12T09:21:11.231Z,100206.34
2023-11-12T09:23:39.948Z,100204.44
2023-11-12T09:26:08.005Z,100200.28
2023-11-12T09:28:36.020Z,100199.50
2023-11-12T09:31:06.396Z,100208.84
2023-11-12T09:33:34.572Z,100202.56
2023-11-12T09:36:02.643Z,100204.22
2023-11-12T09:38:30.855Z,100205.06
2023-11-12T09:41:00.052Z,100203.13
2023-11-12T09:43:28.586Z,100201.50
2023-11-12T09:45:58.060Z,100198.78
2023-11-12T09:48:32.783Z,100208.56
2023-11-12T09:51:01.053Z,100207.78
2023-11-12T09:53:30.923Z,100206.09
2023-11-12T09:55:59.909Z,100203.13
2023-11-12T09:58:27.892Z,100203.13
2023-11-12T10:00:56.163Z,100202.34
2023-11-12T10:03:24.223Z,100198.53
2023-11-12T10:05:53.732Z,100199.34
2023-11-12T10:08:22.242Z,100194.75
2023-11-12T10:10:50.277Z,100198.28
2023-11-12T10:13:19.145Z,100188.47
2023-11-12T10:15:47.604Z,100195.56
2023-11-12T10:18:15.963Z,100193.06
2023-11-12T10:20:45.077Z,100192.03
2023-11-12T10:23:32.744Z,100186.81
2023-11-12T10:26:03.548Z,100192.25
2023-11-12T10:28:35.039Z,100180.56
2023-11-12T10:31:03.058Z,100184.09
2023-11-12T10:33:31.146Z,100178.41
2023-11-12T10:35:59.158Z,100174.03
2023-11-12T10:38:28.468Z,100184.91
2023-11-12T10:41:02.132Z,100183.84
2023-11-12T10:43:31.205Z,100177.59
2023-11-12T10:46:00.179Z,100174.03
2023-11-12T10:48:34.900Z,100180.56
2023-11-12T10:51:04.331Z,100185.19
2023-11-12T10:53:34.556Z,100187.06
2023-11-12T10:56:02.941Z,100185.19
2023-11-12T10:58:31.235Z,100181.84
2023-11-12T11:01:00.424Z,100187.91
2023-11-12T11:03:30.373Z,100182.47
2023-11-12T11:06:00.142Z,100184.34
2023-11-12T11:08:29.741Z,100178.53
2023-11-12T11:10:59.392Z,100187.91
2023-11-12T11:13:27.529Z,100187.91
2023-11-12T11:15:57.409Z,100192.25
2023-11-12T11:18:53.218Z,100189.78
2023-11-12T11:21:21.456Z,100191.69
2023-11-12T11:23:53.207Z,100192.50
2023-11-12T11:26:30.525Z,100191.44
2023-11-12T11:29:14.998Z,100187.91
2023-11-12T11:31:44.321Z,100191.44
2023-11-12T11:34:13.998Z,100196.88
2023-11-12T11:36:44.178Z,100191.44
2023-11-12T11:39:26.276Z,100184.34
2023-11-12T11:42:14.754Z,100187.63
2023-11-12T11:44:43.857Z,100188.72
2023-11-12T11:47:14.361Z,100193.34
2023-11-12T11:49:46.046Z,100187.91
2023-11-12T11:52:19.490Z,100190.34
2023-11-12T11:54:47.457Z,100193.91
2023-11-12T11:57:20.027Z,100190.34
2023-11-12T11:59:49.301Z,100199.59
2023-11-12T12:02:19.948Z,100199.34
2023-11-12T12:04:49.251Z,100198.53
2023-11-12T12:07:24.387Z,100198.53
2023-11-12T12:09:53.679Z,100205.63
2023-11-12T12:12:24.188Z,100206.69
2023-11-12T12:14:53.832Z,100208.84
2023-11-12T12:17:22.053Z,100209.41
2023-11-12T12:19:53.770Z,100204.78
2023-11-12T12:22:25.368Z,100208.56
2023-11-12T12:24:56.774Z,100212.13
2023-11-12T12:27:26.442Z,100213.78
2023-11-12T12:29:56.087Z,100212.94
2023-11-12T12:32:26.269Z,100219.22
2023-11-12T12:34:57.934Z,100218.41
2023-11-12T12:37:26.993Z,100207.50
2023-11-12T12:40:01.798Z,100210.22
2023-11-12T12:42:31.881Z,100208.34
2023-11-12T12:45:00.108Z,100211.06
2023-11-12T12:47:35.831Z,100209.41
2023-11-12T12:50:17.436Z,100204.78
2023-11-12T12:52:47.010Z,100204.78
2023-11-12T12:55:17.307Z,100206.69
2023-11-12T12:57:50.832Z,100195.81
2023-11-12T13:00:21.785Z,100193.06
2023-11-12T13:02:50.954Z,100194.75
2023-11-12T13:05:22.458Z,100191.19
2023-11-12T13:07:51.830Z,100190.13
2023-11-12T13:10:21.655Z,100187.41
2023-11-12T13:12:51.824Z,100178.91
2023-11-12T13:15:20.179Z,100195.56
2023-11-12T13:17:48.117Z,100190.13
2023-11-12T13:20:16.248Z,100185.75
2023-11-12T13:22:44.432Z,100189.28
2023-11-12T13:25:13.676Z,100192.03
2023-11-12T13:27:45.801Z,100192.03
2023-11-12T13:30:16.224Z,100187.41
2023-11-12T13:32:44.296Z,100187.63
2023-11-12T13:35:12.938Z,100177.59
2023-11-12T13:37:41.878Z,100180.31
2023-11-12T13:40:14.985Z,100190.34
2023-11-12T13:42:43.896Z,100190.97
2023-11-12T13:45:12.780Z,100183.03
2023-11-12T13:47:43.392Z,100191.19
2023-11-12T13:50:14.879Z,100183.84
2023-11-12T13:52:44.112Z,100183.03
2023-11-12T13:55:12.701Z,100185.75
2023-11-12T13:57:40.928Z,100183.03
2023-11-12T14:00:12.891Z,100183.03
2023-11-12T14:02:42.638Z,100176.53
2023-11-12T14:05:12.146Z,100183.84
2023-11-12T14:07:41.233Z,100183.03
2023-11-12T14:10:11.884Z,100189.28
2023-11-12T14:12:44.084Z,100185.53
2023-11-12T14:15:16.776Z,100190.13
2023-11-12T14:17:46.316Z,100190.13
2023-11-12T14:20:21.975Z,100201.00
2023-11-12T14:22:52.314Z,100191.19
2023-11-12T14:25:21.278Z,100197.69
2023-11-12T14:27:50.613Z,100203.72
2023-11-12T14:30:19.868Z,100202.06
2023-11-12T14:32:52.074Z,100202.91
2023-11-12T14:35:23.684Z,100206.22
2023-11-12T14:37:51.768Z,100208.13
2023-11-12T14:40:20.142Z,100209.16
2023-11-12T14:42:48.192Z,100210.00
2023-11-12T14:47:46.114Z,100207.50
2023-11-12T14:50:17.734Z,100199.94
2023-11-12T14:52:45.847Z,100204.56
2023-11-12T14:55:24.463Z,100198.28
2023-11-12T14:57:55.497Z,100202.91
2023-11-12T15:00:29.387Z,100213.56
2023-11-12T15:02:58.835Z,100209.16
2023-11-12T15:05:28.491Z,100207.28
2023-11-12T15:07:56.489Z,100206.09
2023-11-12T15:10:24.721Z,100214.84
2023-11-12T15:12:52.976Z,100219.00
2023-11-12T15:15:22.751Z,100221.72
2023-11-12T15:17:53.190Z,100220.88
2023-11-12T15:20:21.717Z,100209.66
2023-11-12T15:22:51.930Z,100215.44
2023-11-12T15:25:20.792Z,100221.72
2023-11-12T15:27:49.795Z,100217.22
2023-11-12T15:30:18.755Z,100225.50
2023-11-12T15:32:47.203Z,100226.31
2023-11-12T15:35:15.934Z,100232.59
2023-11-12T15:37:44.174Z,100229.03
2023-11-12T15:40:19.647Z,100226.31
2023-11-12T15:42:49.367Z,100227.16
2023-11-12T15:45:18.247Z,100224.44
2023-11-12T15:47:47.438Z,100228.81
2023-11-12T15:50:15.640Z,100235.31
2023-11-12T15:52:45.301Z,100232.59
2023-11-12T15:55:14.909Z,100241.59
2023-11-12T15:57:43.213Z,100244.31
2023-11-12T16:00:15.457Z,100244.53
2023-11-12T16:02:44.391Z,100239.69
2023-11-12T16:05:13.778Z,100246.19
2023-11-12T16:07:42.379Z,100253.31
2023-11-12T16:10:12.855Z,100251.66
2023-11-12T16:12:42.553Z,100252.47
2023-11-12T16:15:14.260Z,100256.03
2023-11-12T16:17:43.349Z,100267.13
2023-11-12T16:20:13.396Z,100260.63
2023-11-12T16:22:42.097Z,100268.81
2023-11-12T16:25:10.945Z,100263.34
2023-11-12T16:27:39.285Z,100258.75
2023-11-12T16:30:13.169Z,100263.34
2023-11-12T16:32:41.496Z,100270.69
2023-11-12T16:35:11.765Z,100284.28
2023-11-12T16:37:46.353Z,100285.34
2023-11-12T16:40:16.039Z,100283.47
2023-11-12T16:42:47.759Z,100284.28
2023-11-12T16:45:17.819Z,100288.06
2023-11-12T16:47:46.079Z,100287.00
2023-11-12T16:50:17.273Z,100278.84
2023-11-12T16:52:45.273Z,100289.72
2023-11-12T16:55:13.327Z,100288.91
2023-11-12T16:57:41.480Z,100288.91
2023-11-12T17:00:11.376Z,100292.91
2023-11-12T17:02:40.846Z,100302.50
2023-11-12T17:05:09.610Z,100293.28
2023-11-12T17:07:37.769Z,100291.63
2023-11-12T17:10:06.362Z,100294.34
2023-11-12T17:12:34.469Z,100297.06
2023-11-12T17:15:03.467Z,100288.91
2023-11-12T17:17:31.745Z,100289.72
2023-11-12T17:20:01.769Z,100290.78
2023-11-12T17:22:30.400Z,100297.06
2023-11-12T17:25:01.456Z,100304.41
2023-11-12T17:27:31.488Z,100307.13
2023-11-12T17:30:00.198Z,100298.13
2023-11-12T17:32:29.231Z,100298.13
2023-11-12T17:34:57.388Z,100293.50
2023-11-12T17:37:27.156Z,100285.34
2023-11-12T17:39:55.165Z,100289.97
2023-11-12T17:42:23.757Z,100286.66
2023-11-12T17:44:53.657Z,100280.97
2023-11-12T17:47:25.861Z,100282.84
2023-11-12T17:50:01.548Z,100281.44
2023-11-12T17:52:32.420Z,100294.72
2023-11-12T17:55:01.868Z,100307.72
2023-11-12T17:57:34.124Z,100308.28
2023-11-12T18:00:04.204Z,100314.59
2023-11-12T18:02:32.265Z,100325.47
2023-11-12T18:05:00.364Z,100324.63
2023-11-12T18:07:29.767Z,100320.28
2023-11-12T18:09:59.166Z,100322.16
2023-11-12T18:12:27.165Z,100324.88
2023-11-12T18:14:56.209Z,100316.72
2023-11-12T18:17:24.141Z,100326.75
2023-11-12T18:19:52.049Z,100328.66
2023-11-12T18:22:21.539Z,100335.63
2023-11-12T18:24:49.805Z,100344.97
2023-11-12T18:27:19.128Z,100353.16
2023-11-12T18:29:47.385Z,100360.47
2023-11-12T18:32:15.707Z,100352.31
2023-11-12T18:34:47.285Z,100353.16
2023-11-12T18:37:15.281Z,100353.97
2023-11-12T18:39:43.290Z,100349.38
2023-11-12T18:42:11.652Z,100337.66
2023-11-12T18:44:40.999Z,100337.66
2023-11-12T18:47:09.275Z,100349.38
2023-11-12T18:49:37.291Z,100360.25
2023-11-12T18:52:05.715Z,100356.09
2023-11-12T18:54:33.716Z,100359.66
2023-11-12T18:57:01.700Z,100353.38
2023-11-12T18:59:30.239Z,100353.38
2023-11-12T19:01:59.562Z,100353.59
2023-11-12T19:04:28.663Z,100346.53
2023-11-12T19:06:57.296Z,100337.28
2023-11-12T19:09:26.264Z,100356.31
2023-11-12T19:11:54.655Z,100351.97
2023-11-12T19:14:23.366Z,100351.97
2023-11-12T19:16:54.836Z,100360.94
2023-11-12T19:19:25.911Z,100368.84
2023-11-12T19:21:57.838Z,100366.13
2023-11-12T19:24:25.904Z,100360.94
2023-11-12T19:26:53.825Z,100357.16
2023-11-12T19:29:21.803Z,100360.69
2023-11-12T19:31:50.166Z,100362.38
2023-11-12T19:34:18.191Z,100363.81
2023-11-12T19:36:47.678Z,100346.38
2023-11-12T19:39:15.643Z,100329.50
2023-11-12T19:41:43.810Z,100333.41
2023-11-12T19:44:11.926Z,100324.44
2023-11-12T19:46:42.561Z,100326.91
2023-11-12T19:49:11.578Z,100329.38
2023-11-12T19:51:40.128Z,100331.31
2023-11-12T19:54:09.922Z,100338.16
2023-11-12T19:56:40.486Z,100337.31
2023-11-12T19:59:08.635Z,100342.75
2023-11-12T20:01:36.910Z,100348.81
2023-11-12T20:04:07.315Z,100355.91
2023-11-12T20:06:36.281Z,100373.03
2023-11-12T20:09:04.562Z,100382.88
2023-11-12T20:11:34.136Z,100388.31
2023-11-12T20:14:04.224Z,100381.22
2023-11-12T20:16:34.733Z,100387.47
2023-11-12T20:19:03.584Z,100374.97
2023-11-12T20:21:31.569Z,100380.63
2023-11-12T20:23:59.568Z,100378.97
2023-11-12T20:26:27.492Z,100370.19
2023-11-12T20:28:56.896Z,100373.75
2023-11-12T20:31:25.579Z,100372.91
2023-11-12T20:33:56.149Z,100379.44
2023-11-12T20:36:24.132Z,100376.72
2023-11-12T20:38:52.346Z,100379.44
2023-11-12T20:41:21.508Z,100383.22
2023-11-12T20:43:49.490Z,100381.34
2023-11-12T20:46:19.784Z,100372.34
2023-11-12T20:48:48.013Z,100362.53
2023-11-12T20:51:16.193Z,100366.06
2023-11-12T20:53:44.157Z,100384.28
2023-11-12T20:56:14.376Z,100393.28
2023-11-12T20:58:42.343Z,100412.31
2023-11-12T21:01:11.148Z,100415.06
2023-11-12T21:03:42.543Z,100403.09
2023-11-12T21:06:10.796Z,100376.97
2023-11-12T21:08:40.995Z,100378.63
2023-11-12T21:11:11.485Z,100380.50
2023-11-12T21:13:39.702Z,100378.84
2023-11-12T21:16:08.269Z,100394.13
2023-11-12T21:18:36.333Z,100400.38
2023-11-12T21:21:06.186Z,100397.66
2023-11-12T21:23:34.536Z,100397.66
2023-11-12T21:26:02.589Z,100394.94
2023-11-12T21:28:30.878Z,100395.78
2023-11-12T21:30:59.334Z,100396.59
2023-11-12T21:33:27.769Z,100378.38
2023-11-12T21:35:55.782Z,100362.03
2023-11-12T21:38:25.551Z,100358.53
2023-11-12T21:40:53.569Z,100372.91
2023-11-12T21:43:21.782Z,100364.75
2023-11-12T21:45:51.308Z,100348.44
2023-11-12T21:48:20.765Z,100336.75
2023-11-12T21:50:49.357Z,100341.09
2023-11-12T21:53:17.364Z,100341.09
2023-11-12T21:55:46.828Z,100333.78
2023-11-12T21:58:15.028Z,100341.09
2023-11-12T22:00:44.620Z,100345.47
2023-11-12T22:03:16.152Z,100350.59
2023-11-12T22:05:44.459Z,100365.59
2023-11-12T22:08:12.817Z,100378.38
2023-11-12T22:10:40.812Z,100383.59
2023-11-12T22:13:10.256Z,100396.34
2023-11-12T22:15:38.276Z,100395.53
2023-11-12T22:18:06.559Z,100392.81
2023-11-12T22:20:38.830Z,100387.34
2023-11-12T22:23:06.956Z,100395.53
2023-11-12T22:25:34.930Z,100393.63
2023-11-12T22:28:03.077Z,100390.09
2023-11-12T22:30:32.561Z,100400.75
2023-11-12T22:33:00.625Z,100397.41
2023-11-12T22:35:28.699Z,100391.97
2023-11-12T22:37:56.695Z,100403.69
2023-11-12T22:40:24.985Z,100397.19
2023-11-12T22:42:53.582Z,100403.69
2023-11-12T22:45:23.713Z,100411.84
2023-11-12T22:47:53.767Z,100418.97
2023-11-12T22:50:23.118Z,100419.19
2023-11-12T22:52:51.111Z,100420.00
2023-11-12T22:55:20.051Z,100408.56
2023-11-12T22:57:48.274Z,100416.09
2023-11-12T23:00:37.057Z,100398.94
2023-11-12T23:03:13.659Z,100400.81
2023-11-12T23:05:42.184Z,100402.69
2023-11-12T23:08:10.322Z,100394.53
2023-11-12T23:10:38.523Z,100397.25
2023-11-12T23:13:07.707Z,100404.63
2023-11-12T23:15:35.821Z,100416.28
2023-11-12T23:18:05.199Z,100420.09
2023-11-12T23:20:35.862Z,100399.16
2023-11-12T23:23:04.022Z,100384.47
2023-11-12T23:25:32.138Z,100390.19
2023-11-12T23:28:00.393Z,100378.47
2023-11-12T23:30:29.473Z,100380.34
2023-11-12T23:32:57.544Z,100374.06
2023-11-12T23:35:27.460Z,100367.81
2023-11-12T23:37:56.839Z,100358.81
2023-11-12T23:40:24.915Z,100377.84
2023-11-12T23:42:52.968Z,100370.53
2023-11-12T23:45:20.922Z,100364.25
2023-11-12T23:47:48.879Z,100357.97
2023-11-12T23:50:16.924Z,100346.25
2023-11-12T23:52:45.464Z,100320.13
2023-11-12T23:55:15.950Z,100320.13
2023-11-12T23:57:44.400Z,100317.66
